Home   Weather   Germany   Westerland   Past weeks
Flag for Germany

Past Weather in Westerland, Schleswig-Holstein, Germany — Yesterday and Last 2 Weeks

Currently: 37 °F. Overcast. (Weather station: Westerland / Sylt, Germany). See more current weather

Past Weather in Westerland — Graph

°F

Westerland Temperature Yesterday

Maximum temperature yesterday: 39 °F (at 11:50 am)
Minimum temperature yesterday: 23 °F (at 6:20 am)
Average temperature yesterday: 33 °F

High & Low Weather Summary for the Past Weeks

 TemperatureHumidityPressure
High54 °F (Feb 24, 7:50 pm)100% (Feb 22, 2:20 am)30.69 "Hg (Feb 22, 2:20 am)
Low23 °F (Mar 8, 6:20 am)42% (Mar 8, 1:50 pm)29.98 "Hg (Feb 22, 12:20 am)
Average40 °F86%30.35 "Hg
* Reported Feb 22 12:20 am — Mar 9 12:20 am, Westerland. Weather by CustomWeather, © 2021

Note: Actual official high and low records may vary slightly from our data, if they occured in-between our weather recording intervals... More about our weather records

Westerland Weather History for the Previous 24 Hours

Scroll right to see more
 ConditionsComfort  
Time TempWeatherWind HumidityBarometerVisibility
12:20 am
Tue, Mar 9
37 °FOvercast.10 mph60%30.12 "HgN/A
11:50 pm
Mon, Mar 8
36 °FMostly cloudy.9 mph70%30.12 "HgN/A
11:20 pm36 °FMostly cloudy.9 mph65%30.12 "HgN/A
10:50 pm34 °FOvercast.8 mph70%30.15 "HgN/A
10:20 pm36 °FOvercast.8 mph65%30.15 "HgN/A
9:50 pm36 °FOvercast.8 mph70%30.15 "HgN/A
9:20 pm36 °FOvercast.10 mph70%30.15 "HgN/A
8:50 pm36 °FOvercast.8 mph75%30.15 "HgN/A
8:20 pm36 °FOvercast.8 mph65%30.15 "HgN/A
7:50 pm34 °FOvercast.7 mph70%30.15 "HgN/A
7:20 pm34 °FOvercast.7 mph60%30.15 "HgN/A
6:50 pm34 °FOvercast.6 mph56%30.18 "HgN/A
6:20 pm34 °FMostly cloudy.6 mph56%30.18 "HgN/A
5:50 pm36 °FMore clouds than sun.7 mph56%30.18 "HgN/A
5:20 pm37 °FSunny.5 mph60%30.18 "Hg10 mi
4:50 pm37 °FSunny.7 mph56%30.18 "Hg10 mi
4:20 pm37 °FSunny.6 mph56%30.18 "Hg10 mi
3:50 pm37 °FSunny.6 mph56%30.21 "Hg10 mi
3:20 pm39 °FPassing clouds.6 mph52%30.21 "HgN/A
2:50 pm37 °FSunny.7 mph52%30.21 "Hg10 mi
2:20 pm39 °FPassing clouds.6 mph48%30.21 "HgN/A
1:50 pm39 °FPassing clouds.6 mph42%30.24 "HgN/A
1:20 pm39 °FPassing clouds.7 mph45%30.24 "HgN/A
12:50 pm39 °FSunny.7 mph45%30.24 "HgN/A
12:20 pm39 °FSunny.7 mph45%30.24 "HgN/A
11:50 am39 °FPassing clouds.6 mph61%30.24 "HgN/A
11:20 am37 °FSunny.7 mph65%30.24 "Hg10 mi
10:50 am36 °FSunny.7 mph65%30.24 "Hg10 mi
10:20 am37 °FSunny.3 mph52%30.24 "HgN/A
9:50 am37 °FSunny.2 mph56%30.24 "HgN/A
9:20 am36 °FPassing clouds.2 mph70%30.24 "Hg0 mi
8:50 am32 °FSunny.2 mph80%30.24 "Hg0 mi
8:20 am30 °FSunny.3 mph80%30.24 "Hg2 mi
7:50 am25 °FSunny.3 mph80%30.21 "HgN/A
7:20 am27 °FPartly sunny.3 mph86%30.21 "HgN/A
6:50 am25 °FPassing clouds.3 mph93%30.21 "HgN/A
6:20 am23 °FClear.2 mph93%30.21 "HgN/A
5:50 am25 °FClear.2 mph93%30.21 "HgN/A
5:20 am25 °FClear.2 mph86%30.21 "HgN/A
4:50 am30 °FClear.2 mph80%30.21 "HgN/A
4:20 am27 °FPassing clouds.2 mph93%30.18 "HgN/A
3:50 am27 °FClear.3 mph80%30.18 "HgN/A
3:20 am27 °FClear.6 mph80%30.18 "HgN/A
2:50 am28 °FClear.6 mph74%30.18 "HgN/A
2:20 am28 °FClear.5 mph80%30.18 "HgN/A
1:50 am30 °FClear.5 mph75%30.18 "HgN/A
1:20 am32 °FClear.8 mph69%30.18 "HgN/A
Weather by CustomWeather, © 2021

See weather overview